sensor_id;sensor_type;location;lat;lon;timestamp;pressure;altitude;pressure_sealevel;temperature;humidity
60099;BME280;62818;49.394;8.686;2023-05-10T00:00:12;99716.47;;;14.64;100.00
60099;BME280;62818;49.394;8.686;2023-05-10T00:01:13;99716.53;;;14.57;100.00
60099;BME280;62818;49.394;8.686;2023-05-10T00:02:13;99712.38;;;14.61;100.00
60099;BME280;62818;49.394;8.686;2023-05-10T00:03:14;99718.84;;;14.72;100.00
60099;BME280;62818;49.394;8.686;2023-05-10T00:04:14;99717.13;;;14.59;100.00
60099;BME280;62818;49.394;8.686;2023-05-10T00:05:15;99717.94;;;14.60;100.00
60099;BME280;62818;49.394;8.686;2023-05-10T00:06:15;99723.81;;;14.68;100.00
60099;BME280;62818;49.394;8.686;2023-05-10T00:07:16;99718.16;;;14.58;100.00
60099;BME280;62818;49.394;8.686;2023-05-10T00:08:17;99723.34;;;14.53;100.00
60099;BME280;62818;49.394;8.686;2023-05-10T00:09:18;99728.25;;;14.50;100.00
60099;BME280;62818;49.394;8.686;2023-05-10T00:10:18;99723.34;;;14.53;100.00
60099;BME280;62818;49.394;8.686;2023-05-10T00:11:19;99725.81;;;14.48;100.00
60099;BME280;62818;49.394;8.686;2023-05-10T00:12:20;99722.03;;;14.62;100.00
60099;BME280;62818;49.394;8.686;2023-05-10T00:13:21;99728.06;;;14.51;100.00
60099;BME280;62818;49.394;8.686;2023-05-10T00:14:22;99723.09;;;14.55;100.00
60099;BME280;62818;49.394;8.686;2023-05-10T00:15:22;99735.66;;;14.48;100.00
60099;BME280;62818;49.394;8.686;2023-05-10T00:16:23;99729.91;;;14.51;100.00
60099;BME280;62818;49.394;8.686;2023-05-10T00:17:23;99719.19;;;14.57;100.00
60099;BME280;62818;49.394;8.686;2023-05-10T00:18:24;99721.41;;;14.36;100.00
60099;BME280;62818;49.394;8.686;2023-05-10T00:19:24;99730.63;;;14.64;100.00
60099;BME280;62818;49.394;8.686;2023-05-10T00:20:25;99720.03;;;14.58;100.00
60099;BME280;62818;49.394;8.686;2023-05-10T00:21:26;99724.94;;;14.54;100.00
60099;BME280;62818;49.394;8.686;2023-05-10T00:22:28;99727.41;;;14.56;100.00
60099;BME280;62818;49.394;8.686;2023-05-10T00:23:28;99723.75;;;14.50;100.00
60099;BME280;62818;49.394;8.686;2023-05-10T00:24:29;99723.47;;;14.34;100.00
60099;BME280;62818;49.394;8.686;2023-05-10T00:25:30;99723.84;;;14.37;100.00
60099;BME280;62818;49.394;8.686;2023-05-10T00:26:30;99733.72;;;14.30;100.00
60099;BME280;62818;49.394;8.686;2023-05-10T00:27:30;99731.97;;;14.49;100.00
60099;BME280;62818;49.394;8.686;2023-05-10T00:28:31;99724.81;;;14.49;100.00
60099;BME280;62818;49.394;8.686;2023-05-10T00:29:31;99726.59;;;14.55;100.00
60099;BME280;62818;49.394;8.686;2023-05-10T00:30:33;99723.75;;;14.50;100.00
60099;BME280;62818;49.394;8.686;2023-05-10T00:31:34;99722.13;;;14.49;100.00
60099;BME280;62818;49.394;8.686;2023-05-10T00:32:34;99721.59;;;14.65;100.00
60099;BME280;62818;49.394;8.686;2023-05-10T00:33:35;99723.53;;;14.52;100.00
60099;BME280;62818;49.394;8.686;2023-05-10T00:34:35;99726.13;;;14.65;100.00
60099;BME280;62818;49.394;8.686;2023-05-10T00:35:36;99712.50;;;14.73;100.00
60099;BME280;62818;49.394;8.686;2023-05-10T00:36:37;99720.56;;;14.66;100.00
60099;BME280;62818;49.394;8.686;2023-05-10T00:37:38;99712.09;;;14.69;100.00
60099;BME280;62818;49.394;8.686;2023-05-10T00:38:38;99716.66;;;14.69;100.00
60099;BME280;62818;49.394;8.686;2023-05-10T00:39:39;99713.63;;;14.59;100.00
60099;BME280;62818;49.394;8.686;2023-05-10T00:40:39;99717.31;;;14.33;100.00
60099;BME280;62818;49.394;8.686;2023-05-10T00:41:40;99718.88;;;14.41;100.00
60099;BME280;62818;49.394;8.686;2023-05-10T00:42:41;99724.63;;;14.44;100.00
60099;BME280;62818;49.394;8.686;2023-05-10T00:43:41;99726.41;;;14.50;100.00
60099;BME280;62818;49.394;8.686;2023-05-10T00:44:42;99717.19;;;14.53;100.00
60099;BME280;62818;49.394;8.686;2023-05-10T00:45:43;99714.84;;;14.38;100.00
60099;BME280;62818;49.394;8.686;2023-05-10T00:46:44;99721.59;;;14.65;100.00
60099;BME280;62818;49.394;8.686;2023-05-10T00:47:45;99721.59;;;14.65;100.00
60099;BME280;62818;49.394;8.686;2023-05-10T00:48:45;99727.03;;;14.52;100.00
60099;BME280;62818;49.394;8.686;2023-05-10T00:49:46;99722.81;;;14.63;100.00
60099;BME280;62818;49.394;8.686;2023-05-10T00:50:47;99724.94;;;14.54;100.00
60099;BME280;62818;49.394;8.686;2023-05-10T00:51:48;99729.88;;;14.57;100.00
60099;BME280;62818;49.394;8.686;2023-05-10T00:52:49;99729.13;;;14.44;100.00
60099;BME280;62818;49.394;8.686;2023-05-10T00:53:50;99732.72;;;14.25;100.00
60099;BME280;62818;49.394;8.686;2023-05-10T00:54:52;99730.06;;;14.31;100.00
60099;BME280;62818;49.394;8.686;2023-05-10T00:55:52;99733.50;;;14.38;100.00
60099;BME280;62818;49.394;8.686;2023-05-10T00:56:53;99733.66;;;14.43;100.00
60099;BME280;62818;49.394;8.686;2023-05-10T00:57:54;99736.59;;;14.35;100.00
60099;BME280;62818;49.394;8.686;2023-05-10T00:58:55;99735.00;;;14.21;100.00
60099;BME280;62818;49.394;8.686;2023-05-10T00:59:56;99732.72;;;14.31;100.00
60099;BME280;62818;49.394;8.686;2023-05-10T01:00:58;99732.44;;;14.39;100.00
60099;BME280;62818;49.394;8.686;2023-05-10T01:01:59;99735.63;;;14.54;100.00
60099;BME280;62818;49.394;8.686;2023-05-10T01:02:59;99737.38;;;14.42;100.00
60099;BME280;62818;49.394;8.686;2023-05-10T01:04:01;99729.56;;;14.41;100.00
60099;BME280;62818;49.394;8.686;2023-05-10T01:05:03;99734.66;;;14.49;100.00
60099;BME280;62818;49.394;8.686;2023-05-10T01:06:04;99730.88;;;14.32;100.00
60099;BME280;62818;49.394;8.686;2023-05-10T01:07:05;99731.44;;;14.40;100.00
60099;BME280;62818;49.394;8.686;2023-05-10T01:12:49;99732.31;;;14.59;100.00
60099;BME280;62818;49.394;8.686;2023-05-10T01:13:55;99730.72;;;14.51;100.00
60099;BME280;62818;49.394;8.686;2023-05-10T01:14:57;99729.09;;;14.50;100.00
60099;BME280;62818;49.394;8.686;2023-05-10T01:15:58;99731.25;;;14.35;100.00
60099;BME280;62818;49.394;8.686;2023-05-10T01:17:01;99727.13;;;14.39;100.00
60099;BME280;62818;49.394;8.686;2023-05-10T01:18:03;99734.69;;;14.42;100.00
60099;BME280;62818;49.394;8.686;2023-05-10T01:19:12;99731.81;;;14.44;100.00
60099;BME280;62818;49.394;8.686;2023-05-10T01:20:16;99728.97;;;14.63;100.00
60099;BME280;62818;49.394;8.686;2023-05-10T01:21:45;99733.44;;;14.69;100.00
60099;BME280;62818;49.394;8.686;2023-05-10T01:23:11;99737.63;;;14.28;100.00
60099;BME280;62818;49.394;8.686;2023-05-10T01:25:23;99736.63;;;14.22;100.00
60099;BME280;62818;49.394;8.686;2023-05-10T01:26:14;99736.34;;;14.37;100.00
60099;BME280;62818;49.394;8.686;2023-05-10T01:34:09;99744.16;;;14.38;100.00
60099;BME280;62818;49.394;8.686;2023-05-10T01:35:20;99745.44;;;14.29;100.00
60099;BME280;62818;49.394;8.686;2023-05-10T01:36:32;99736.41;;;14.30;100.00
60099;BME280;62818;49.394;8.686;2023-05-10T01:37:45;99737.09;;;14.12;100.00
60099;BME280;62818;49.394;8.686;2023-05-10T01:39:40;99740.84;;;14.05;100.00
60099;BME280;62818;49.394;8.686;2023-05-10T01:40:32;99736.31;;;14.05;100.00
60099;BME280;62818;49.394;8.686;2023-05-10T01:42:14;99739.59;;;14.07;100.00
60099;BME280;62818;49.394;8.686;2023-05-10T01:43:24;99745.09;;;14.12;100.00
60099;BME280;62818;49.394;8.686;2023-05-10T01:44:37;99744.09;;;14.07;100.00
60099;BME280;62818;49.394;8.686;2023-05-10T01:46:05;99748.66;;;14.00;100.00
60099;BME280;62818;49.394;8.686;2023-05-10T01:47:16;99751.50;;;14.05;100.00
60099;BME280;62818;49.394;8.686;2023-05-10T01:48:20;99750.63;;;14.11;100.00
60099;BME280;62818;49.394;8.686;2023-05-10T01:49:26;99752.25;;;14.19;100.00
60099;BME280;62818;49.394;8.686;2023-05-10T01:50:34;99752.16;;;14.38;100.00
60099;BME280;62818;49.394;8.686;2023-05-10T01:51:42;99760.59;;;14.29;100.00
60099;BME280;62818;49.394;8.686;2023-05-10T01:52:56;99757.19;;;14.15;100.00
60099;BME280;62818;49.394;8.686;2023-05-10T01:54:00;99753.91;;;14.13;100.00
60099;BME280;62818;49.394;8.686;2023-05-10T01:55:05;99755.66;;;14.32;100.00
60099;BME280;62818;49.394;8.686;2023-05-10T01:56:09;99759.50;;;14.43;100.00
60099;BME280;62818;49.394;8.686;2023-05-10T01:57:13;99748.91;;;14.36;100.00
60099;BME280;62818;49.394;8.686;2023-05-10T01:58:23;99756.50;;;14.33;100.00
60099;BME280;62818;49.394;8.686;2023-05-10T01:59:30;99761.53;;;14.47;100.00
60099;BME280;62818;49.394;8.686;2023-05-10T02:00:45;99759.34;;;14.38;100.00
60099;BME280;62818;49.394;8.686;2023-05-10T02:01:48;99759.13;;;14.39;100.00
60099;BME280;62818;49.394;8.686;2023-05-10T02:02:52;99767.75;;;14.28;100.00
60099;BME280;62818;49.394;8.686;2023-05-10T02:03:55;99769.28;;;14.11;100.00
60099;BME280;62818;49.394;8.686;2023-05-10T02:04:58;99762.31;;;14.10;100.00
60099;BME280;62818;49.394;8.686;2023-05-10T02:06:00;99766.22;;;14.14;100.00
60099;BME280;62818;49.394;8.686;2023-05-10T02:07:02;99763.47;;;14.27;100.00
60099;BME280;62818;49.394;8.686;2023-05-10T02:08:06;99756.50;;;14.26;100.00
60099;BME280;62818;49.394;8.686;2023-05-10T02:09:09;99756.72;;;14.31;100.00
60099;BME280;62818;49.394;8.686;2023-05-10T02:10:13;99757.91;;;14.29;100.00
60099;BME280;62818;49.394;8.686;2023-05-10T02:11:17;99766.88;;;14.41;100.00
60099;BME280;62818;49.394;8.686;2023-05-10T02:12:19;99762.28;;;14.54;100.00
60099;BME280;62818;49.394;8.686;2023-05-10T02:13:23;99763.06;;;14.61;100.00
60099;BME280;62818;49.394;8.686;2023-05-10T02:14:25;99764.81;;;14.49;100.00
60099;BME280;62818;49.394;8.686;2023-05-10T02:15:28;99762.81;;;14.38;100.00
60099;BME280;62818;49.394;8.686;2023-05-10T02:16:31;99773.31;;;14.33;100.00
60099;BME280;62818;49.394;8.686;2023-05-10T02:17:32;99780.31;;;14.21;100.00
60099;BME280;62818;49.394;8.686;2023-05-10T02:18:35;99769.81;;;14.26;100.00
60099;BME280;62818;49.394;8.686;2023-05-10T02:19:38;99776.03;;;14.20;100.00
60099;BME280;62818;49.394;8.686;2023-05-10T02:20:42;99769.59;;;14.34;100.00
60099;BME280;62818;49.394;8.686;2023-05-10T02:21:46;99774.59;;;14.18;100.00
60099;BME280;62818;49.394;8.686;2023-05-10T02:22:49;99767.41;;;14.18;100.00
60099;BME280;62818;49.394;8.686;2023-05-10T02:23:53;99769.81;;;14.26;100.00
60099;BME280;62818;49.394;8.686;2023-05-10T02:24:57;99771.47;;;14.34;100.00
60099;BME280;62818;49.394;8.686;2023-05-10T02:26:00;99771.28;;;14.22;100.00
60099;BME280;62818;49.394;8.686;2023-05-10T02:27:03;99772.66;;;14.38;100.00
60099;BME280;62818;49.394;8.686;2023-05-10T02:28:05;99769.00;;;14.32;100.00
60099;BME280;62818;49.394;8.686;2023-05-10T02:29:08;99771.06;;;14.30;100.00
60099;BME280;62818;49.394;8.686;2023-05-10T02:30:10;99771.84;;;14.37;100.00
60099;BME280;62818;49.394;8.686;2023-05-10T02:31:12;99777.09;;;14.50;100.00
60099;BME280;62818;49.394;8.686;2023-05-10T02:32:15;99771.88;;;14.31;100.00
60099;BME280;62818;49.394;8.686;2023-05-10T02:33:18;99774.88;;;14.41;100.00
60099;BME280;62818;49.394;8.686;2023-05-10T02:34:21;99775.16;;;14.33;100.00
60099;BME280;62818;49.394;8.686;2023-05-10T02:35:26;99784.91;;;14.45;100.00
60099;BME280;62818;49.394;8.686;2023-05-10T02:36:28;99780.09;;;14.29;100.00
60099;BME280;62818;49.394;8.686;2023-05-10T02:37:30;99784.88;;;14.14;100.00
60099;BME280;62818;49.394;8.686;2023-05-10T02:38:33;99780.72;;;14.31;100.00
60099;BME280;62818;49.394;8.686;2023-05-10T02:39:35;99782.97;;;14.21;100.00
60099;BME280;62818;49.394;8.686;2023-05-10T02:40:37;99782.06;;;14.47;100.00
60099;BME280;62818;49.394;8.686;2023-05-10T02:41:38;99780.81;;;14.49;100.00
60099;BME280;62818;49.394;8.686;2023-05-10T02:42:42;99787.06;;;14.24;100.00
60099;BME280;62818;49.394;8.686;2023-05-10T02:43:45;99789.19;;;14.08;100.00
60099;BME280;62818;49.394;8.686;2023-05-10T02:44:48;99777.66;;;14.14;100.00
60099;BME280;62818;49.394;8.686;2023-05-10T02:45:52;99788.78;;;14.11;100.00
60099;BME280;62818;49.394;8.686;2023-05-10T02:46:53;99784.91;;;14.07;100.00
60099;BME280;62818;49.394;8.686;2023-05-10T02:47:56;99783.66;;;14.03;100.00
60099;BME280;62818;49.394;8.686;2023-05-10T02:48:57;99773.16;;;14.15;100.00
60099;BME280;62818;49.394;8.686;2023-05-10T02:49:58;99782.56;;;14.24;100.00
60099;BME280;62818;49.394;8.686;2023-05-10T02:51:04;99784.25;;;14.19;100.00
60099;BME280;62818;49.394;8.686;2023-05-10T02:52:08;99776.47;;;14.10;100.00
60099;BME280;62818;49.394;8.686;2023-05-10T02:53:15;99782.03;;;14.09;100.00
60099;BME280;62818;49.394;8.686;2023-05-10T02:54:24;99790.47;;;13.99;100.00
60099;BME280;62818;49.394;8.686;2023-05-10T02:55:34;99784.00;;;13.76;100.00
60099;BME280;62818;49.394;8.686;2023-05-10T02:56:42;99783.75;;;13.84;100.00
60099;BME280;62818;49.394;8.686;2023-05-10T02:57:58;99786.00;;;13.87;100.00
60099;BME280;62818;49.394;8.686;2023-05-10T02:59:00;99793.41;;;13.85;100.00
60099;BME280;62818;49.394;8.686;2023-05-10T03:00:02;99791.78;;;13.71;100.00
60099;BME280;62818;49.394;8.686;2023-05-10T03:01:03;99783.59;;;13.79;100.00
60099;BME280;62818;49.394;8.686;2023-05-10T03:02:04;99796.84;;;13.98;100.00
60099;BME280;62818;49.394;8.686;2023-05-10T03:03:05;99786.63;;;13.89;100.00
60099;BME280;62818;49.394;8.686;2023-05-10T03:04:06;99787.25;;;13.84;100.00
60099;BME280;62818;49.394;8.686;2023-05-10T03:05:07;99791.75;;;13.84;100.00
60099;BME280;62818;49.394;8.686;2023-05-10T03:06:08;99788.88;;;13.92;100.00
60099;BME280;62818;49.394;8.686;2023-05-10T03:07:10;99786.75;;;14.07;100.00
60099;BME280;62818;49.394;8.686;2023-05-10T03:08:10;99793.63;;;13.83;100.00
60099;BME280;62818;49.394;8.686;2023-05-10T03:09:11;99789.69;;;13.86;100.00
60099;BME280;62818;49.394;8.686;2023-05-10T03:10:15;99791.19;;;13.69;100.00
60099;BME280;62818;49.394;8.686;2023-05-10T03:11:55;99788.88;;;13.92;100.00
60099;BME280;62818;49.394;8.686;2023-05-10T03:17:30;99781.38;;;13.63;100.00
60099;BME280;62818;49.394;8.686;2023-05-10T03:19:06;99779.56;;;13.57;100.00
60099;BME280;62818;49.394;8.686;2023-05-10T03:20:31;99779.72;;;13.68;100.00
60099;BME280;62818;49.394;8.686;2023-05-10T03:21:37;99776.47;;;13.60;100.00
60099;BME280;62818;49.394;8.686;2023-05-10T03:22:47;99786.50;;;13.64;100.00
60099;BME280;62818;49.394;8.686;2023-05-10T03:24:05;99783.16;;;13.82;100.00
60099;BME280;62818;49.394;8.686;2023-05-10T03:25:10;99780.34;;;13.64;100.00
60099;BME280;62818;49.394;8.686;2023-05-10T03:26:23;99788.97;;;13.66;100.00
60099;BME280;62818;49.394;8.686;2023-05-10T03:27:26;99790.97;;;13.77;100.00
60099;BME280;62818;49.394;8.686;2023-05-10T03:28:28;99788.53;;;13.62;100.00
60099;BME280;62818;49.394;8.686;2023-05-10T03:29:31;99792.69;;;13.52;100.00
60099;BME280;62818;49.394;8.686;2023-05-10T03:30:33;99791.44;;;13.61;100.00
60099;BME280;62818;49.394;8.686;2023-05-10T03:31:35;99795.25;;;13.78;100.00
60099;BME280;62818;49.394;8.686;2023-05-10T03:32:35;99796.63;;;14.00;100.00
60099;BME280;62818;49.394;8.686;2023-05-10T03:33:48;99795.78;;;13.99;100.00
60099;BME280;62818;49.394;8.686;2023-05-10T03:34:50;99792.19;;;13.81;100.00
60099;BME280;62818;49.394;8.686;2023-05-10T03:35:50;99795.47;;;13.83;100.00
60099;BME280;62818;49.394;8.686;2023-05-10T03:36:51;99802.44;;;13.77;100.00
60099;BME280;62818;49.394;8.686;2023-05-10T03:37:52;99795.88;;;13.80;100.00
60099;BME280;62818;49.394;8.686;2023-05-10T03:38:52;99798.91;;;13.90;100.00
60099;BME280;62818;49.394;8.686;2023-05-10T03:39:53;99801.19;;;13.80;100.00
60099;BME280;62818;49.394;8.686;2023-05-10T03:40:53;99800.59;;;13.71;100.00
60099;BME280;62818;49.394;8.686;2023-05-10T03:41:54;99804.50;;;13.69;100.00
60099;BME280;62818;49.394;8.686;2023-05-10T03:42:55;99803.63;;;13.88;100.00
60099;BME280;62818;49.394;8.686;2023-05-10T03:43:55;99807.28;;;14.00;100.00
60099;BME280;62818;49.394;8.686;2023-05-10T03:44:56;99806.09;;;13.89;100.00
60099;BME280;62818;49.394;8.686;2023-05-10T03:45:56;99809.75;;;13.88;100.00
60099;BME280;62818;49.394;8.686;2023-05-10T03:46:57;99811.38;;;13.96;100.00
60099;BME280;62818;49.394;8.686;2023-05-10T03:47:58;99812.00;;;13.98;100.00
60099;BME280;62818;49.394;8.686;2023-05-10T03:48:58;99811.25;;;13.78;100.00
60099;BME280;62818;49.394;8.686;2023-05-10T03:49:59;99815.59;;;13.66;100.00
60099;BME280;62818;49.394;8.686;2023-05-10T03:51:00;99821.31;;;13.63;100.00
60099;BME280;62818;49.394;8.686;2023-05-10T03:52:00;99815.38;;;13.67;100.00
60099;BME280;62818;49.394;8.686;2023-05-10T03:53:01;99814.19;;;13.57;100.00
60099;BME280;62818;49.394;8.686;2023-05-10T03:54:02;99815.78;;;13.64;100.00
60099;BME280;62818;49.394;8.686;2023-05-10T03:55:03;99818.88;;;13.61;100.00
60099;BME280;62818;49.394;8.686;2023-05-10T03:56:03;99822.31;;;13.75;100.00
60099;BME280;62818;49.394;8.686;2023-05-10T03:57:04;99814.78;;;13.59;100.00
60099;BME280;62818;49.394;8.686;2023-05-10T03:58:05;99815.59;;;13.66;100.00
60099;BME280;62818;49.394;8.686;2023-05-10T03:59:05;99816.22;;;13.61;100.00
60099;BME280;62818;49.394;8.686;2023-05-10T04:00:08;99815.38;;;13.67;100.00
60099;BME280;62818;49.394;8.686;2023-05-10T04:01:09;99815.97;;;13.69;100.00
60099;BME280;62818;49.394;8.686;2023-05-10T04:02:10;99816.19;;;13.68;100.00
60099;BME280;62818;49.394;8.686;2023-05-10T04:03:11;99823.72;;;13.84;100.00
60099;BME280;62818;49.394;8.686;2023-05-10T04:04:12;99815.13;;;13.75;100.00
60099;BME280;62818;49.394;8.686;2023-05-10T04:05:13;99821.31;;;13.69;100.00
60099;BME280;62818;49.394;8.686;2023-05-10T04:06:13;99815.97;;;13.76;100.00
60099;BME280;62818;49.394;8.686;2023-05-10T04:07:14;99815.56;;;13.72;100.00
60099;BME280;62818;49.394;8.686;2023-05-10T04:08:15;99820.06;;;13.78;100.00
60099;BME280;62818;49.394;8.686;2023-05-10T04:09:16;99818.81;;;13.87;100.00
60099;BME280;62818;49.394;8.686;2023-05-10T04:10:17;99821.03;;;13.90;100.00
60099;BME280;62818;49.394;8.686;2023-05-10T04:11:17;99818.81;;;13.81;100.00
60099;BME280;62818;49.394;8.686;2023-05-10T04:12:18;99817.63;;;13.77;100.00
60099;BME280;62818;49.394;8.686;2023-05-10T04:13:18;99823.94;;;13.82;100.00
60099;BME280;62818;49.394;8.686;2023-05-10T04:14:19;99824.75;;;13.83;100.00
60099;BME280;62818;49.394;8.686;2023-05-10T04:15:20;99821.66;;;13.86;100.00
60099;BME280;62818;49.394;8.686;2023-05-10T04:16:21;99831.94;;;13.76;100.00
60099;BME280;62818;49.394;8.686;2023-05-10T04:17:21;99828.06;;;13.72;100.00
60099;BME280;62818;49.394;8.686;2023-05-10T04:18:21;99823.97;;;13.69;100.00
60099;BME280;62818;49.394;8.686;2023-05-10T04:19:22;99831.13;;;13.69;100.00
60099;BME280;62818;49.394;8.686;2023-05-10T04:20:24;99839.34;;;13.74;100.00
60099;BME280;62818;49.394;8.686;2023-05-10T04:21:24;99834.81;;;13.81;100.00
60099;BME280;62818;49.394;8.686;2023-05-10T04:22:25;99841.56;;;13.90;100.00
60099;BME280;62818;49.394;8.686;2023-05-10T04:23:27;99840.97;;;13.68;100.00
60099;BME280;62818;49.394;8.686;2023-05-10T04:24:27;99842.22;;;13.66;100.00
60099;BME280;62818;49.394;8.686;2023-05-10T04:25:28;99834.44;;;13.64;100.00
60099;BME280;62818;49.394;8.686;2023-05-10T04:26:28;99839.16;;;13.56;100.00
60099;BME280;62818;49.394;8.686;2023-05-10T04:27:29;99838.13;;;13.63;100.00
60099;BME280;62818;49.394;8.686;2023-05-10T04:28:30;99839.31;;;13.80;100.00
60099;BME280;62818;49.394;8.686;2023-05-10T04:29:30;99833.59;;;13.64;100.00
60099;BME280;62818;49.394;8.686;2023-05-10T04:30:31;99842.63;;;13.63;100.00
60099;BME280;62818;49.394;8.686;2023-05-10T04:31:31;99841.41;;;13.59;100.00
60099;BME280;62818;49.394;8.686;2023-05-10T04:32:32;99841.41;;;13.59;100.00
60099;BME280;62818;49.394;8.686;2023-05-10T04:33:33;99839.16;;;13.56;100.00
60099;BME280;62818;49.394;8.686;2023-05-10T04:34:34;99841.41;;;13.59;100.00
60099;BME280;62818;49.394;8.686;2023-05-10T04:35:35;99841.44;;;13.52;100.00
60099;BME280;62818;49.394;8.686;2023-05-10T04:36:35;99841.41;;;13.65;100.00
60099;BME280;62818;49.394;8.686;2023-05-10T04:37:36;99843.25;;;13.52;100.00
60099;BME280;62818;49.394;8.686;2023-05-10T04:38:37;99846.53;;;13.54;100.00
60099;BME280;62818;49.394;8.686;2023-05-10T04:39:37;99845.31;;;13.50;100.00
60099;BME280;62818;49.394;8.686;2023-05-10T04:40:38;99839.19;;;13.43;100.00
60099;BME280;62818;49.394;8.686;2023-05-10T04:41:38;99837.72;;;13.47;100.00
60099;BME280;62818;49.394;8.686;2023-05-10T04:42:43;99843.66;;;13.49;100.00
60099;BME280;62818;49.394;8.686;2023-05-10T04:43:44;99836.50;;;13.43;100.00
60099;BME280;62818;49.394;8.686;2023-05-10T04:44:50;99850.03;;;13.54;100.00
60099;BME280;62818;49.394;8.686;2023-05-10T04:45:52;99843.47;;;13.57;100.00
60099;BME280;62818;49.394;8.686;2023-05-10T04:46:52;99852.47;;;13.56;100.00
60099;BME280;62818;49.394;8.686;2023-05-10T04:47:53;99845.72;;;13.47;100.00
60099;BME280;62818;49.394;8.686;2023-05-10T04:48:53;99846.75;;;13.59;100.00
60099;BME280;62818;49.394;8.686;2023-05-10T04:49:54;99849.44;;;13.46;100.00
60099;BME280;62818;49.394;8.686;2023-05-10T04:50:54;99847.97;;;13.50;100.00
60099;BME280;62818;49.394;8.686;2023-05-10T04:51:55;99843.47;;;13.57;100.00
60099;BME280;62818;49.394;8.686;2023-05-10T04:52:56;99852.09;;;13.52;100.00
60099;BME280;62818;49.394;8.686;2023-05-10T04:53:56;99847.56;;;13.66;100.00
60099;BME280;62818;49.394;8.686;2023-05-10T04:54:57;99841.41;;;13.59;100.00
60099;BME280;62818;49.394;8.686;2023-05-10T04:55:57;99843.25;;;13.52;100.00
60099;BME280;62818;49.394;8.686;2023-05-10T04:56:58;99839.38;;;13.61;100.00
60099;BME280;62818;49.394;8.686;2023-05-10T04:57:58;99845.69;;;13.60;100.00
60099;BME280;62818;49.394;8.686;2023-05-10T04:58:59;99846.34;;;13.49;100.00
60099;BME280;62818;49.394;8.686;2023-05-10T04:59:59;99841.84;;;13.49;100.00
60099;BME280;62818;49.394;8.686;2023-05-10T05:01:07;99852.25;;;13.51;100.00
60099;BME280;62818;49.394;8.686;2023-05-10T05:02:09;99850.84;;;13.55;100.00
60099;BME280;62818;49.394;8.686;2023-05-10T05:03:09;99845.13;;;13.45;100.00
60099;BME280;62818;49.394;8.686;2023-05-10T05:04:10;99849.63;;;13.44;100.00
60099;BME280;62818;49.394;8.686;2023-05-10T05:05:14;99852.50;;;13.43;100.00
60099;BME280;62818;49.394;8.686;2023-05-10T05:06:14;99850.03;;;13.54;100.00
60099;BME280;62818;49.394;8.686;2023-05-10T05:07:15;99848.81;;;13.57;100.00
60099;BME280;62818;49.394;8.686;2023-05-10T05:08:15;99847.13;;;13.62;100.00
60099;BME280;62818;49.394;8.686;2023-05-10T05:09:15;99851.47;;;13.57;100.00
60099;BME280;62818;49.394;8.686;2023-05-10T05:10:16;99855.72;;;13.71;100.00
60099;BME280;62818;49.394;8.686;2023-05-10T05:11:17;99849.59;;;13.77;100.00
60099;BME280;62818;49.394;8.686;2023-05-10T05:12:17;99852.22;;;13.83;100.00
60099;BME280;62818;49.394;8.686;2023-05-10T05:13:18;99853.66;;;13.73;100.00
60099;BME280;62818;49.394;8.686;2023-05-10T05:14:19;99857.75;;;13.75;100.00
60099;BME280;62818;49.394;8.686;2023-05-10T05:15:21;99854.22;;;13.88;100.00
60099;BME280;62818;49.394;8.686;2023-05-10T05:16:21;99855.66;;;13.90;100.00
60099;BME280;62818;49.394;8.686;2023-05-10T05:17:22;99854.28;;;13.75;100.00
60099;BME280;62818;49.394;8.686;2023-05-10T05:18:22;99861.25;;;13.76;100.00
60099;BME280;62818;49.394;8.686;2023-05-10T05:19:23;99857.38;;;13.72;100.00
60099;BME280;62818;49.394;8.686;2023-05-10T05:20:23;99855.72;;;13.71;100.00
60099;BME280;62818;49.394;8.686;2023-05-10T05:21:24;99863.28;;;13.80;100.00
60099;BME280;62818;49.394;8.686;2023-05-10T05:22:26;99861.88;;;13.65;100.00
60099;BME280;62818;49.394;8.686;2023-05-10T05:23:28;99868.22;;;13.77;100.00
60099;BME280;62818;49.394;8.686;2023-05-10T05:24:28;99865.97;;;13.74;100.00
60099;BME280;62818;49.394;8.686;2023-05-10T05:25:29;99863.09;;;13.69;100.00
60099;BME280;62818;49.394;8.686;2023-05-10T05:26:29;99855.72;;;13.71;100.00
60099;BME280;62818;49.394;8.686;2023-05-10T05:27:31;99856.75;;;13.76;100.00
60099;BME280;62818;49.394;8.686;2023-05-10T05:28:32;99856.94;;;13.75;100.00
60099;BME280;62818;49.394;8.686;2023-05-10T05:29:34;99863.31;;;13.74;100.00
60099;BME280;62818;49.394;8.686;2023-05-10T05:30:35;99858.78;;;13.81;100.00
60099;BME280;62818;49.394;8.686;2023-05-10T05:31:36;99855.69;;;13.84;100.00
60099;BME280;62818;49.394;8.686;2023-05-10T05:32:36;99851.56;;;13.88;100.00
60099;BME280;62818;49.394;8.686;2023-05-10T05:33:37;99856.25;;;13.99;100.00
60099;BME280;62818;49.394;8.686;2023-05-10T05:34:37;99862.66;;;13.91;100.00
60099;BME280;62818;49.394;8.686;2023-05-10T05:35:37;99866.94;;;13.86;100.00
60099;BME280;62818;49.394;8.686;2023-05-10T05:36:38;99869.47;;;13.68;100.00
60099;BME280;62818;49.394;8.686;2023-05-10T05:37:38;99865.56;;;13.77;100.00
60099;BME280;62818;49.394;8.686;2023-05-10T05:38:39;99865.72;;;13.82;100.00
60099;BME280;62818;49.394;8.686;2023-05-10T05:39:40;99859.81;;;13.73;100.00
60099;BME280;62818;49.394;8.686;2023-05-10T05:40:41;99865.78;;;13.62;100.00
60099;BME280;62818;49.394;8.686;2023-05-10T05:41:41;99870.06;;;13.83;100.00
60099;BME280;62818;49.394;8.686;2023-05-10T05:42:42;99866.56;;;13.82;100.00
60099;BME280;62818;49.394;8.686;2023-05-10T05:43:43;99869.47;;;13.74;100.00
60099;BME280;62818;49.394;8.686;2023-05-10T05:44:43;99869.66;;;13.73;100.00
60099;BME280;62818;49.394;8.686;2023-05-10T05:45:44;99864.09;;;13.87;100.00